createdAt,value
2024-05-09T00:00:40.697Z,95013.97
2024-05-09T00:03:09.938Z,94993.94
2024-05-09T00:05:38.180Z,94967.59
2024-05-09T00:08:06.649Z,94983.63
2024-05-09T00:10:37.385Z,94981.59
2024-05-09T00:13:07.103Z,94984.53
2024-05-09T00:15:34.904Z,94981.22
2024-05-09T00:18:03.306Z,94962.53
2024-05-09T00:20:37.658Z,94952.31
2024-05-09T00:23:08.131Z,94960.00
2024-05-09T00:25:35.541Z,94943.66
2024-05-09T00:28:02.998Z,94925.19
2024-05-09T00:30:34.612Z,94910.06
2024-05-09T00:33:08.368Z,94913.53
2024-05-09T00:35:36.732Z,94893.22
2024-05-09T00:38:04.063Z,94835.75
2024-05-09T00:40:41.883Z,94854.00
2024-05-09T00:43:14.456Z,94844.44
2024-05-09T00:45:42.803Z,94826.44
2024-05-09T00:48:14.214Z,94816.75
2024-05-09T00:50:45.316Z,94795.22
2024-05-09T00:53:14.518Z,94788.75
2024-05-09T00:55:42.114Z,94802.16
2024-05-09T00:58:11.043Z,94786.44
2024-05-09T01:00:40.411Z,94781.63
2024-05-09T01:03:10.501Z,94776.72
2024-05-09T01:05:39.777Z,94593.34
2024-05-09T01:08:07.721Z,94308.94
2024-05-09T01:10:36.183Z,94306.88
2024-05-09T01:13:04.568Z,94307.53
2024-05-09T01:15:31.658Z,94318.84
2024-05-09T01:18:01.156Z,94310.84
2024-05-09T01:20:37.479Z,94311.47
2024-05-09T01:23:10.191Z,94324.75
2024-05-09T01:25:37.950Z,94291.44
2024-05-09T01:28:05.230Z,94301.25
2024-05-09T01:30:35.468Z,94305.06
2024-05-09T01:33:06.578Z,94305.06
2024-05-09T01:35:35.120Z,94294.84
2024-05-09T01:38:02.205Z,94301.25
2024-05-09T01:40:36.793Z,94298.16
2024-05-09T01:43:06.701Z,94300.34
2024-05-09T01:45:33.689Z,94294.50
2024-05-09T01:48:01.011Z,94300.22
2024-05-09T01:50:37.701Z,94284.22
2024-05-09T01:53:09.037Z,94292.38
2024-05-09T01:55:36.251Z,94258.66
2024-05-09T01:58:03.087Z,94250.59
2024-05-09T02:00:38.667Z,94222.13
2024-05-09T02:03:15.654Z,94215.66
2024-05-09T02:05:46.577Z,94192.91
2024-05-09T02:08:15.828Z,94197.69
2024-05-09T02:10:47.474Z,94177.50
2024-05-09T02:13:15.568Z,94168.78
2024-05-09T02:15:42.622Z,94153.94
2024-05-09T02:18:10.435Z,94063.03
2024-05-09T02:20:39.478Z,94057.25
2024-05-09T02:23:07.067Z,94041.56
2024-05-09T02:25:34.762Z,94072.72
2024-05-09T02:28:01.923Z,94075.34
2024-05-09T02:30:38.129Z,94090.84
2024-05-09T02:33:09.955Z,94080.66
2024-05-09T02:35:38.569Z,94086.78
2024-05-09T02:38:05.548Z,94096.59
2024-05-09T02:40:37.457Z,94098.91
2024-05-09T02:43:07.515Z,94108.84
2024-05-09T02:45:34.661Z,94135.44
2024-05-09T02:48:02.133Z,94131.72
2024-05-09T02:50:36.731Z,94162.44
2024-05-09T02:56:01.280Z,94184.19
2024-05-09T02:58:28.172Z,94218.38
2024-05-09T03:00:56.314Z,94235.97
2024-05-09T03:03:23.500Z,94272.88
2024-05-09T03:05:50.619Z,94289.97
2024-05-09T03:08:17.451Z,94313.69
2024-05-09T03:10:44.352Z,94346.28
2024-05-09T03:13:14.669Z,94391.16
2024-05-09T03:15:43.023Z,94442.25
2024-05-09T03:18:10.226Z,94484.63
2024-05-09T03:20:38.397Z,94545.09
2024-05-09T03:23:08.859Z,94595.31
2024-05-09T03:25:36.770Z,94673.03
2024-05-09T03:28:03.915Z,94730.69
2024-05-09T03:30:39.522Z,94790.31
2024-05-09T03:33:20.192Z,94830.09
2024-05-09T03:35:48.737Z,94870.72
2024-05-09T03:38:16.287Z,94917.94
2024-05-09T03:40:50.690Z,94951.78
2024-05-09T03:43:19.140Z,95003.41
2024-05-09T03:45:49.460Z,95033.53
2024-05-09T03:48:17.207Z,95064.84
2024-05-09T03:50:44.323Z,95086.94
2024-05-09T03:53:14.378Z,95121.72
2024-05-09T03:55:41.371Z,95154.47
2024-05-09T03:58:08.715Z,95183.81
2024-05-09T04:00:39.156Z,95212.22
2024-05-09T04:03:10.212Z,95235.25
2024-05-09T04:05:41.047Z,95269.88
2024-05-09T04:08:09.361Z,95297.06
2024-05-09T04:10:36.388Z,95314.75
2024-05-09T04:13:04.072Z,95342.28
2024-05-09T04:15:31.494Z,95365.06
2024-05-09T04:17:58.806Z,95386.53
2024-05-09T04:20:35.984Z,95395.13
2024-05-09T04:23:07.879Z,95427.34
2024-05-09T04:25:35.377Z,95448.50
2024-05-09T04:28:02.379Z,95470.13
2024-05-09T04:30:36.853Z,95473.56
2024-05-09T04:33:08.850Z,95489.88
2024-05-09T04:35:38.184Z,95520.59
2024-05-09T04:38:06.188Z,95525.13
2024-05-09T04:40:36.035Z,95536.78
2024-05-09T04:43:14.273Z,95550.09
2024-05-09T04:45:41.317Z,95557.91
2024-05-09T04:48:08.978Z,95579.72
2024-05-09T04:50:38.712Z,95586.78
2024-05-09T04:53:09.029Z,95603.91
2024-05-09T04:55:37.684Z,95613.47
2024-05-09T04:58:05.753Z,95635.72
2024-05-09T05:00:37.114Z,95658.97
2024-05-09T05:03:08.544Z,95670.84
2024-05-09T05:05:40.978Z,95674.13
2024-05-09T05:08:15.301Z,95685.13
2024-05-09T05:10:43.207Z,95686.06
2024-05-09T05:13:20.468Z,95709.59
2024-05-09T05:15:49.614Z,95709.44
2024-05-09T05:18:17.308Z,95707.72
2024-05-09T05:20:45.157Z,95729.66
2024-05-09T05:23:14.143Z,95729.66
2024-05-09T05:25:44.971Z,95747.41
2024-05-09T05:28:11.841Z,95745.22
2024-05-09T05:30:39.336Z,95754.13
2024-05-09T05:33:07.557Z,95757.44
2024-05-09T05:35:34.944Z,95752.06
2024-05-09T05:38:02.530Z,95754.13
2024-05-09T05:40:36.324Z,95758.34
2024-05-09T05:43:15.656Z,95754.88
2024-05-09T05:45:42.556Z,95763.84
2024-05-09T05:48:10.124Z,95775.63
2024-05-09T05:50:38.422Z,95774.34
2024-05-09T05:53:07.757Z,95778.28
2024-05-09T05:55:35.866Z,95777.31
2024-05-09T05:58:03.046Z,95789.09
2024-05-09T06:00:37.481Z,95785.97
2024-05-09T06:03:06.691Z,95788.81
2024-05-09T06:05:33.945Z,95788.16
2024-05-09T06:08:00.995Z,95788.78
2024-05-09T06:10:37.218Z,95789.25
2024-05-09T06:13:07.180Z,95808.09
2024-05-09T06:15:41.931Z,95793.03
2024-05-09T06:18:10.594Z,95807.28
2024-05-09T06:20:40.153Z,95822.22
2024-05-09T06:23:08.460Z,95823.00
2024-05-09T06:25:36.303Z,95813.88
2024-05-09T06:28:03.590Z,95816.56
2024-05-09T06:30:37.816Z,95820.63
2024-05-09T06:33:09.242Z,95829.75
2024-05-09T06:35:37.391Z,95826.44
2024-05-09T06:38:06.551Z,95827.53
2024-05-09T06:40:38.315Z,95828.19
2024-05-09T06:43:14.587Z,95835.22
2024-05-09T06:45:42.075Z,95847.47
2024-05-09T06:48:10.115Z,95857.19
2024-05-09T06:50:39.083Z,95861.91
2024-05-09T06:53:07.905Z,95853.09
2024-05-09T06:55:34.961Z,95862.19
2024-05-09T06:58:01.969Z,95868.78
2024-05-09T07:00:35.770Z,95886.03
2024-05-09T07:03:16.756Z,95886.84
2024-05-09T07:05:46.531Z,95904.72
2024-05-09T07:08:14.562Z,95922.59
2024-05-09T07:10:41.669Z,95931.88
2024-05-09T07:13:12.579Z,95931.56
2024-05-09T07:15:40.781Z,95942.22
2024-05-09T07:18:12.156Z,95953.22
2024-05-09T07:20:40.405Z,95965.91
2024-05-09T07:23:11.173Z,95966.53
2024-05-09T07:25:39.796Z,95973.59
2024-05-09T07:28:20.539Z,95988.03
2024-05-09T07:30:47.619Z,95989.91
2024-05-09T07:33:19.539Z,95984.13
2024-05-09T07:35:47.443Z,95980.84
2024-05-09T07:38:14.543Z,95979.88
2024-05-09T07:40:41.917Z,95996.84
2024-05-09T07:43:14.577Z,95993.84
2024-05-09T07:45:51.083Z,95999.03
2024-05-09T07:53:39.189Z,95992.47
2024-05-09T07:56:09.876Z,96022.72
2024-05-09T07:58:37.592Z,96040.94
2024-05-09T08:01:05.268Z,96069.31
2024-05-09T08:03:32.450Z,96110.25
2024-05-09T08:05:59.397Z,96132.75
2024-05-09T08:08:26.254Z,96139.84
2024-05-09T08:10:53.258Z,96146.34
2024-05-09T08:13:20.385Z,96153.72
2024-05-09T08:15:47.417Z,96168.78
2024-05-09T08:18:14.469Z,96173.69
2024-05-09T08:20:42.143Z,96181.69
2024-05-09T08:23:08.967Z,96174.00
2024-05-09T08:25:35.766Z,96176.06
2024-05-09T08:28:04.811Z,96172.31
2024-05-09T08:30:36.813Z,96171.50
2024-05-09T08:33:06.651Z,96153.47
2024-05-09T08:35:34.948Z,96158.63
2024-05-09T08:38:06.317Z,96155.03
2024-05-09T08:40:36.354Z,96153.78
2024-05-09T08:43:11.412Z,96173.88
2024-05-09T08:45:43.775Z,96201.03
2024-05-09T08:48:13.668Z,96221.28
2024-05-09T08:50:41.515Z,96235.59
2024-05-09T08:53:09.123Z,96231.63
2024-05-09T08:55:40.455Z,96243.28
2024-05-09T08:58:16.523Z,96237.63
2024-05-09T09:00:45.496Z,96238.41
2024-05-09T09:03:19.454Z,96232.47
2024-05-09T09:05:58.393Z,96238.28
2024-05-09T09:08:26.247Z,96240.16
2024-05-09T09:10:58.160Z,96263.44
2024-05-09T09:13:25.812Z,96278.19
2024-05-09T09:15:57.548Z,96305.38
2024-05-09T09:18:26.871Z,96317.03
2024-05-09T09:20:54.275Z,96326.59
2024-05-09T09:23:21.201Z,96386.94
2024-05-09T09:25:48.109Z,96420.56
2024-05-09T09:28:15.456Z,96454.63
2024-05-09T09:30:43.315Z,96489.56
2024-05-09T09:33:11.684Z,96512.22
2024-05-09T09:35:41.861Z,96526.56
2024-05-09T09:38:10.693Z,96513.00
2024-05-09T09:40:46.648Z,96522.91
2024-05-09T09:43:20.235Z,96498.22
2024-05-09T09:45:50.627Z,96507.22
2024-05-09T09:48:17.827Z,96492.91
2024-05-09T09:50:45.845Z,96484.22
2024-05-09T09:53:14.193Z,96502.88
2024-05-09T09:55:42.046Z,96524.78
2024-05-09T09:58:13.395Z,96532.19
2024-05-09T10:00:41.904Z,96505.41
2024-05-09T10:03:09.779Z,96500.88
2024-05-09T10:05:37.444Z,96482.16
2024-05-09T10:08:07.004Z,96459.34
2024-05-09T10:10:35.732Z,96436.75
2024-05-09T10:13:09.179Z,96409.59
2024-05-09T10:15:52.873Z,96394.34
2024-05-09T10:18:27.284Z,96365.91
2024-05-09T10:20:56.505Z,96354.28
2024-05-09T10:23:31.245Z,96345.63
2024-05-09T10:26:05.824Z,96344.22
2024-05-09T10:28:35.680Z,96304.47
2024-05-09T10:31:13.520Z,96305.88
2024-05-09T10:33:45.819Z,96280.28
2024-05-09T10:36:14.814Z,96293.41
2024-05-09T10:38:43.348Z,96288.13
2024-05-09T10:41:11.351Z,96294.09
2024-05-09T10:43:41.975Z,96282.47
2024-05-09T10:46:09.995Z,96277.78
2024-05-09T10:48:38.288Z,96290.34
2024-05-09T10:51:05.612Z,96295.38
2024-05-09T10:53:32.516Z,96287.53
2024-05-09T10:56:00.463Z,96305.56
2024-05-09T10:58:28.243Z,96309.81
2024-05-09T11:00:58.381Z,96330.06
2024-05-09T11:03:26.164Z,96368.09
2024-05-09T11:05:53.528Z,96389.66
2024-05-09T11:08:24.209Z,96385.75
2024-05-09T11:10:53.690Z,96407.88
2024-05-09T11:13:31.011Z,96416.22
2024-05-09T11:15:58.761Z,96421.25
2024-05-09T11:18:29.790Z,96433.00
2024-05-09T11:20:59.622Z,96463.66
2024-05-09T11:23:30.340Z,96471.34
2024-05-09T11:25:59.405Z,96464.44
2024-05-09T11:28:32.411Z,96447.63
2024-05-09T11:31:07.894Z,96431.72
2024-05-09T11:33:44.268Z,96406.16
2024-05-09T11:36:11.468Z,96374.75
2024-05-09T11:38:38.293Z,96349.75
2024-05-09T11:41:05.798Z,96336.88
2024-05-09T11:43:33.402Z,96303.25
2024-05-09T11:46:01.048Z,96308.41
2024-05-09T11:48:28.417Z,96321.91
2024-05-09T11:50:57.061Z,96331.34
2024-05-09T11:53:24.173Z,96346.28
2024-05-09T11:55:51.062Z,96341.72
2024-05-09T11:58:19.177Z,96319.56
2024-05-09T12:00:46.891Z,96275.09
2024-05-09T12:03:14.463Z,96271.50
2024-05-09T12:05:41.834Z,96253.59
2024-05-09T12:08:08.991Z,96253.09
2024-05-09T12:10:36.945Z,96235.19
2024-05-09T12:13:06.500Z,96208.63
2024-05-09T12:15:37.449Z,96176.25
2024-05-09T12:18:06.178Z,96140.16
2024-05-09T12:20:37.674Z,96118.47
2024-05-09T12:23:07.434Z,96112.31
2024-05-09T12:25:35.047Z,96106.00
2024-05-09T12:28:02.056Z,96082.44
2024-05-09T12:30:39.840Z,96062.03
2024-05-09T12:33:09.728Z,96049.59
2024-05-09T12:35:36.942Z,96025.09
2024-05-09T12:38:04.514Z,96013.13
2024-05-09T12:40:36.306Z,96007.34
2024-05-09T12:43:07.251Z,95992.09
2024-05-09T12:45:34.698Z,95972.13
2024-05-09T12:48:01.718Z,95965.03
2024-05-09T12:50:32.892Z,95958.75
2024-05-09T12:53:02.586Z,95935.97
2024-05-09T12:55:34.260Z,95950.75
2024-05-09T12:58:08.958Z,95947.47
2024-05-09T13:00:36.449Z,95950.59
2024-05-09T13:03:03.628Z,95930.13
2024-05-09T13:05:30.898Z,95921.22
2024-05-09T13:07:57.918Z,95912.72
2024-05-09T13:10:31.723Z,95893.84
2024-05-09T13:13:01.513Z,95886.91
2024-05-09T13:15:30.586Z,95876.69
2024-05-09T13:18:01.568Z,95860.53
2024-05-09T13:20:33.584Z,95839.81
2024-05-09T13:23:07.607Z,95830.06
2024-05-09T13:25:35.540Z,95800.97
2024-05-09T13:28:06.577Z,95778.00
2024-05-09T13:30:39.810Z,95765.78
2024-05-09T13:33:13.646Z,95734.44
2024-05-09T13:35:47.652Z,95731.38
2024-05-09T13:38:18.961Z,95714.47
2024-05-09T13:40:46.172Z,95704.13
2024-05-09T13:43:13.728Z,95694.22
2024-05-09T13:45:40.847Z,95692.69
2024-05-09T13:48:09.788Z,95698.56
2024-05-09T13:50:37.352Z,95703.31
2024-05-09T13:53:06.813Z,95698.75
2024-05-09T13:55:35.541Z,95699.72
2024-05-09T13:58:03.094Z,95715.94
2024-05-09T14:00:42.160Z,95717.06
2024-05-09T14:03:15.914Z,95726.28
2024-05-09T14:05:43.498Z,95718.84
2024-05-09T14:08:11.589Z,95718.47
2024-05-09T14:10:44.484Z,95736.75
2024-05-09T14:13:12.411Z,95722.88
2024-05-09T14:15:39.476Z,95728.56
2024-05-09T14:18:10.381Z,95733.63
2024-05-09T14:20:39.574Z,95732.22
2024-05-09T14:23:06.578Z,95745.09
2024-05-09T14:25:37.947Z,95743.22
2024-05-09T14:28:07.797Z,95748.09
2024-05-09T14:30:37.724Z,95736.00
2024-05-09T14:33:06.765Z,95741.88
2024-05-09T14:35:34.609Z,95750.16
2024-05-09T14:38:01.766Z,95745.94
2024-05-09T14:43:01.075Z,95738.13
2024-05-09T14:45:29.324Z,95730.72
2024-05-09T14:47:56.488Z,95726.94
2024-05-09T14:50:28.317Z,95712.78
2024-05-09T14:53:01.912Z,95724.59
2024-05-09T14:55:28.827Z,95722.19
2024-05-09T14:57:55.752Z,95717.38
2024-05-09T15:00:28.778Z,95715.47
2024-05-09T15:03:00.709Z,95712.66
2024-05-09T15:05:27.840Z,95710.00
2024-05-09T15:07:57.738Z,95698.41
2024-05-09T15:10:34.088Z,95695.22
2024-05-09T15:13:03.476Z,95680.13
2024-05-09T15:15:30.920Z,95677.81
2024-05-09T15:17:58.111Z,95674.97
2024-05-09T15:20:33.042Z,95665.22
2024-05-09T15:23:03.232Z,95647.66
2024-05-09T15:25:30.704Z,95648.28
2024-05-09T15:27:57.792Z,95634.09
2024-05-09T15:30:30.726Z,95636.19
2024-05-09T15:33:00.839Z,95623.81
2024-05-09T15:35:28.126Z,95625.19
2024-05-09T15:37:55.523Z,95620.63
2024-05-09T15:40:31.489Z,95616.72
2024-05-09T15:43:06.151Z,95623.03
2024-05-09T15:45:34.709Z,95624.59
2024-05-09T15:48:03.021Z,95605.53
2024-05-09T15:50:37.111Z,95607.47
2024-05-09T15:53:08.323Z,95604.47
2024-05-09T15:55:36.163Z,95591.53
2024-05-09T15:58:04.725Z,95563.06
2024-05-09T16:00:38.000Z,95590.94
2024-05-09T16:03:09.292Z,95576.03
2024-05-09T16:05:37.096Z,95602.13
2024-05-09T16:08:07.944Z,95606.09
2024-05-09T16:10:35.568Z,95616.16
2024-05-09T16:13:03.634Z,95629.56
2024-05-09T16:15:31.344Z,95635.38
2024-05-09T16:17:58.563Z,95635.56
2024-05-09T16:20:34.934Z,95639.78
2024-05-09T16:23:08.150Z,95636.47
2024-05-09T16:25:35.540Z,95657.53
2024-05-09T16:28:06.380Z,95653.44
2024-05-09T16:30:36.514Z,95651.56
2024-05-09T16:33:05.342Z,95656.44
2024-05-09T16:35:33.143Z,95665.38
2024-05-09T16:38:02.938Z,95669.00
2024-05-09T16:40:37.445Z,95665.53
2024-05-09T16:43:08.402Z,95675.72
2024-05-09T16:45:35.803Z,95697.00
2024-05-09T16:48:03.055Z,95720.06
2024-05-09T16:50:33.962Z,95738.13
2024-05-09T16:53:06.158Z,95753.66
2024-05-09T16:55:34.421Z,95786.28
2024-05-09T16:58:02.366Z,95805.75
2024-05-09T17:00:39.264Z,95830.66
2024-05-09T17:03:11.130Z,95848.84
2024-05-09T17:05:39.004Z,95867.81
2024-05-09T17:08:06.856Z,95883.50
2024-05-09T17:10:35.275Z,95891.97
2024-05-09T17:13:04.885Z,95912.38
2024-05-09T17:15:33.552Z,95929.13
2024-05-09T17:18:01.774Z,95951.91
2024-05-09T17:20:33.623Z,95966.78
2024-05-09T17:23:05.095Z,95977.13
2024-05-09T17:25:32.747Z,96001.59
2024-05-09T17:28:06.222Z,96012.47
2024-05-09T17:30:37.014Z,96024.38
2024-05-09T17:33:07.494Z,96042.41
2024-05-09T17:35:35.795Z,96061.06
2024-05-09T17:38:02.872Z,96080.03
2024-05-09T17:40:34.860Z,96091.78
2024-05-09T17:43:05.146Z,96118.13
2024-05-09T17:45:32.839Z,96130.22
2024-05-09T17:48:00.273Z,96126.81
2024-05-09T17:50:35.057Z,96148.09
2024-05-09T17:53:04.667Z,96169.25
2024-05-09T17:55:31.851Z,96181.13
2024-05-09T17:57:58.869Z,96200.72
2024-05-09T18:02:56.083Z,96224.22
2024-05-09T18:05:23.105Z,96222.03
2024-05-09T18:07:50.166Z,96219.81
2024-05-09T18:10:25.203Z,96242.69
2024-05-09T18:12:56.834Z,96234.69
2024-05-09T18:15:23.929Z,96243.78
2024-05-09T18:17:52.248Z,96245.66
2024-05-09T18:20:28.754Z,96254.72
2024-05-09T18:23:05.583Z,96255.22
2024-05-09T18:25:32.453Z,96263.41
2024-05-09T18:27:59.380Z,96276.97
2024-05-09T18:30:32.406Z,96298.00
2024-05-09T18:33:02.461Z,96312.50
2024-05-09T18:35:29.580Z,96308.22
2024-05-09T18:37:56.561Z,96308.88
2024-05-09T18:42:53.276Z,96307.53
2024-05-09T18:45:20.125Z,96301.72
2024-05-09T18:47:51.269Z,96302.81
2024-05-09T18:50:28.376Z,96294.91
2024-05-09T18:53:01.615Z,96291.47
2024-05-09T18:55:28.430Z,96283.47
2024-05-09T18:57:55.448Z,96281.59
2024-05-09T19:00:33.003Z,96261.94
2024-05-09T19:03:05.402Z,96257.34
2024-05-09T19:05:34.563Z,96248.84
2024-05-09T19:08:01.927Z,96252.88
2024-05-09T19:10:33.974Z,96251.50
2024-05-09T19:13:05.748Z,96248.34
2024-05-09T19:15:36.401Z,96239.81
2024-05-09T19:18:03.740Z,96242.53
2024-05-09T19:20:34.512Z,96242.66
2024-05-09T19:23:03.287Z,96247.38
2024-05-09T19:25:30.375Z,96228.78
2024-05-09T19:27:57.370Z,96237.69
2024-05-09T19:30:32.990Z,96242.34
2024-05-09T19:33:06.104Z,96244.22
2024-05-09T19:35:33.258Z,96235.63
2024-05-09T19:38:00.279Z,96220.56
2024-05-09T19:40:31.822Z,96237.63
2024-05-09T19:43:05.275Z,96238.88
2024-05-09T19:45:34.607Z,96239.06
2024-05-09T19:48:02.742Z,96237.22
2024-05-09T19:50:37.501Z,96240.66
2024-05-09T19:53:10.954Z,96261.00
2024-05-09T19:55:38.306Z,96261.69
2024-05-09T19:58:09.017Z,96269.66
2024-05-09T20:00:39.468Z,96270.94
2024-05-09T20:03:09.384Z,96275.31
2024-05-09T20:05:37.482Z,96292.97
2024-05-09T20:08:05.424Z,96290.00
2024-05-09T20:10:34.631Z,96303.81
2024-05-09T20:13:03.409Z,96306.28
2024-05-09T20:15:31.450Z,96316.16
2024-05-09T20:17:58.833Z,96321.50
2024-05-09T20:20:33.797Z,96319.78
2024-05-09T20:23:08.354Z,96328.56
2024-05-09T20:25:35.429Z,96339.34
2024-05-09T20:28:02.493Z,96349.78
2024-05-09T20:30:32.821Z,96334.81
2024-05-09T20:33:04.053Z,96324.66
2024-05-09T20:35:32.542Z,96317.34
2024-05-09T20:38:01.305Z,96317.03
2024-05-09T20:40:33.249Z,96311.72
2024-05-09T20:43:03.993Z,96302.03
2024-05-09T20:45:31.025Z,96288.50
2024-05-09T20:47:58.079Z,96288.38
2024-05-09T20:50:35.589Z,96307.16
2024-05-09T20:53:12.580Z,96297.38
2024-05-09T20:55:40.717Z,96304.88
2024-05-09T20:58:08.633Z,96312.88
2024-05-09T21:00:40.306Z,96329.94
2024-05-09T21:03:11.072Z,96332.03
2024-05-09T21:05:38.961Z,96340.41
2024-05-09T21:08:06.397Z,96361.13
2024-05-09T21:10:35.144Z,96353.03
2024-05-09T21:13:03.274Z,96363.41
2024-05-09T21:15:31.053Z,96378.81
2024-05-09T21:17:58.234Z,96403.56
2024-05-09T21:20:31.086Z,96419.22
2024-05-09T21:22:59.799Z,96456.13
2024-05-09T21:25:26.864Z,96472.28
2024-05-09T21:27:53.949Z,96505.13
2024-05-09T21:30:32.194Z,96533.13
2024-05-09T21:33:09.299Z,96567.84
2024-05-09T21:35:37.336Z,96579.63
2024-05-09T21:38:04.784Z,96601.56
2024-05-09T21:40:34.979Z,96622.03
2024-05-09T21:43:04.238Z,96648.16
2024-05-09T21:45:31.400Z,96661.31
2024-05-09T21:47:58.397Z,96680.88
2024-05-09T21:50:32.356Z,96680.31
2024-05-09T21:53:06.623Z,96678.94
2024-05-09T21:55:34.025Z,96703.19
2024-05-09T21:58:00.992Z,96730.91
2024-05-09T22:00:35.646Z,96738.09
2024-05-09T22:03:05.954Z,96743.78
2024-05-09T22:05:33.160Z,96768.94
2024-05-09T22:08:00.270Z,96787.56
2024-05-09T22:10:33.387Z,96820.22
2024-05-09T22:13:02.588Z,96824.69
2024-05-09T22:15:29.479Z,96837.22
2024-05-09T22:17:57.478Z,96848.94
2024-05-09T22:20:34.226Z,96852.09
2024-05-09T22:23:04.902Z,96873.53
2024-05-09T22:25:32.562Z,96884.69
2024-05-09T22:28:00.930Z,96897.78
2024-05-09T22:30:35.632Z,96917.72
2024-05-09T22:33:06.838Z,96940.63
2024-05-09T22:35:33.977Z,96940.34
2024-05-09T22:38:00.836Z,96949.66
2024-05-09T22:40:38.462Z,96968.94
2024-05-09T22:43:13.992Z,96952.22
2024-05-09T22:45:41.366Z,96958.81
2024-05-09T22:48:09.267Z,96958.91
2024-05-09T22:50:36.437Z,96949.72
2024-05-09T22:53:03.672Z,96946.53
2024-05-09T22:55:30.577Z,96930.91
2024-05-09T22:57:57.561Z,96897.09
2024-05-09T23:02:54.581Z,96843.34
2024-05-09T23:05:21.684Z,96826.69
2024-05-09T23:07:48.634Z,96803.22
2024-05-09T23:10:21.378Z,96797.41
2024-05-09T23:12:55.232Z,96770.06
2024-05-09T23:15:22.107Z,96768.97
2024-05-09T23:17:49.111Z,96770.53
2024-05-09T23:20:22.086Z,96760.88
2024-05-09T23:22:56.749Z,96762.19
2024-05-09T23:25:23.689Z,96760.03
2024-05-09T23:27:50.650Z,96775.72
2024-05-09T23:30:28.454Z,96759.72
2024-05-09T23:33:01.639Z,96751.66
2024-05-09T23:35:28.627Z,96768.69
2024-05-09T23:37:55.713Z,96762.75
2024-05-09T23:40:23.544Z,96764.31
2024-05-09T23:42:53.554Z,96783.22
2024-05-09T23:45:20.395Z,96805.34
2024-05-09T23:47:47.531Z,96831.66
2024-05-09T23:50:20.397Z,96847.56
2024-05-09T23:52:50.788Z,96896.59
2024-05-09T23:55:17.869Z,96914.66
2024-05-09T23:57:44.890Z,96930.06
